sensor_id;sensor_type;location;lat;lon;timestamp;P1;durP1;ratioP1;P2;durP2;ratioP2
5785;SDS011;2919;48.630;9.000;2024-03-25T00:01:07;6.33;;;1.57;;
5785;SDS011;2919;48.630;9.000;2024-03-25T00:03:32;5.53;;;2.40;;
5785;SDS011;2919;48.630;9.000;2024-03-25T00:05:57;6.10;;;2.17;;
5785;SDS011;2919;48.630;9.000;2024-03-25T00:08:23;5.60;;;1.77;;
5785;SDS011;2919;48.630;9.000;2024-03-25T00:10:48;6.23;;;2.30;;
5785;SDS011;2919;48.630;9.000;2024-03-25T00:13:14;3.03;;;1.33;;
5785;SDS011;2919;48.630;9.000;2024-03-25T00:15:39;5.90;;;1.20;;
5785;SDS011;2919;48.630;9.000;2024-03-25T00:18:06;4.80;;;1.20;;
5785;SDS011;2919;48.630;9.000;2024-03-25T00:20:31;3.27;;;1.73;;
5785;SDS011;2919;48.630;9.000;2024-03-25T00:22:57;2.93;;;1.70;;
5785;SDS011;2919;48.630;9.000;2024-03-25T00:25:22;5.50;;;1.80;;
5785;SDS011;2919;48.630;9.000;2024-03-25T00:27:48;2.20;;;1.33;;
5785;SDS011;2919;48.630;9.000;2024-03-25T00:30:13;3.43;;;1.43;;
5785;SDS011;2919;48.630;9.000;2024-03-25T00:32:39;2.80;;;1.50;;
5785;SDS011;2919;48.630;9.000;2024-03-25T00:35:05;1.77;;;1.30;;
5785;SDS011;2919;48.630;9.000;2024-03-25T00:37:31;9.23;;;2.23;;
5785;SDS011;2919;48.630;9.000;2024-03-25T00:39:56;2.17;;;1.47;;
5785;SDS011;2919;48.630;9.000;2024-03-25T00:42:22;3.87;;;1.63;;
5785;SDS011;2919;48.630;9.000;2024-03-25T00:44:48;6.47;;;1.60;;
5785;SDS011;2919;48.630;9.000;2024-03-25T00:47:13;4.80;;;1.70;;
5785;SDS011;2919;48.630;9.000;2024-03-25T00:49:39;2.53;;;1.40;;
5785;SDS011;2919;48.630;9.000;2024-03-25T00:52:04;4.57;;;1.63;;
5785;SDS011;2919;48.630;9.000;2024-03-25T00:54:30;4.43;;;1.70;;
5785;SDS011;2919;48.630;9.000;2024-03-25T00:56:55;5.27;;;1.70;;
5785;SDS011;2919;48.630;9.000;2024-03-25T00:59:21;5.83;;;1.43;;
5785;SDS011;2919;48.630;9.000;2024-03-25T01:01:47;3.20;;;1.83;;
5785;SDS011;2919;48.630;9.000;2024-03-25T01:04:12;3.00;;;1.70;;
5785;SDS011;2919;48.630;9.000;2024-03-25T01:06:38;2.43;;;1.63;;
5785;SDS011;2919;48.630;9.000;2024-03-25T01:09:03;3.40;;;1.90;;
5785;SDS011;2919;48.630;9.000;2024-03-25T01:11:29;5.23;;;1.47;;
5785;SDS011;2919;48.630;9.000;2024-03-25T01:13:55;2.33;;;1.27;;
5785;SDS011;2919;48.630;9.000;2024-03-25T01:16:21;5.23;;;1.90;;
5785;SDS011;2919;48.630;9.000;2024-03-25T01:18:47;5.13;;;1.93;;
5785;SDS011;2919;48.630;9.000;2024-03-25T01:21:12;2.50;;;1.57;;
5785;SDS011;2919;48.630;9.000;2024-03-25T01:23:38;5.10;;;2.00;;
5785;SDS011;2919;48.630;9.000;2024-03-25T01:26:03;4.60;;;2.20;;
5785;SDS011;2919;48.630;9.000;2024-03-25T01:28:29;14.30;;;1.90;;
5785;SDS011;2919;48.630;9.000;2024-03-25T01:30:54;7.60;;;1.83;;
5785;SDS011;2919;48.630;9.000;2024-03-25T01:33:20;6.73;;;1.87;;
5785;SDS011;2919;48.630;9.000;2024-03-25T01:35:45;5.50;;;2.30;;
5785;SDS011;2919;48.630;9.000;2024-03-25T01:38:11;4.97;;;1.80;;
5785;SDS011;2919;48.630;9.000;2024-03-25T01:40:36;4.07;;;2.13;;
5785;SDS011;2919;48.630;9.000;2024-03-25T01:43:02;2.07;;;1.30;;
5785;SDS011;2919;48.630;9.000;2024-03-25T01:45:29;4.27;;;1.93;;
5785;SDS011;2919;48.630;9.000;2024-03-25T01:48:01;6.50;;;2.53;;
5785;SDS011;2919;48.630;9.000;2024-03-25T01:50:29;3.50;;;1.40;;
5785;SDS011;2919;48.630;9.000;2024-03-25T01:52:57;5.33;;;1.97;;
5785;SDS011;2919;48.630;9.000;2024-03-25T01:55:27;5.77;;;2.10;;
5785;SDS011;2919;48.630;9.000;2024-03-25T01:57:55;2.30;;;1.63;;
5785;SDS011;2919;48.630;9.000;2024-03-25T02:00:21;5.00;;;2.67;;
5785;SDS011;2919;48.630;9.000;2024-03-25T02:02:49;3.73;;;2.40;;
5785;SDS011;2919;48.630;9.000;2024-03-25T02:05:15;3.93;;;2.37;;
5785;SDS011;2919;48.630;9.000;2024-03-25T02:07:43;2.43;;;1.60;;
5785;SDS011;2919;48.630;9.000;2024-03-25T02:10:09;3.83;;;2.00;;
5785;SDS011;2919;48.630;9.000;2024-03-25T02:12:36;4.27;;;1.97;;
5785;SDS011;2919;48.630;9.000;2024-03-25T02:15:02;6.93;;;2.53;;
5785;SDS011;2919;48.630;9.000;2024-03-25T02:17:31;2.67;;;1.80;;
5785;SDS011;2919;48.630;9.000;2024-03-25T02:19:57;2.43;;;1.70;;
5785;SDS011;2919;48.630;9.000;2024-03-25T02:22:22;3.07;;;1.93;;
5785;SDS011;2919;48.630;9.000;2024-03-25T02:24:49;8.50;;;2.67;;
5785;SDS011;2919;48.630;9.000;2024-03-25T02:27:17;5.40;;;2.10;;
5785;SDS011;2919;48.630;9.000;2024-03-25T02:29:43;3.77;;;1.97;;
5785;SDS011;2919;48.630;9.000;2024-03-25T02:32:09;5.07;;;2.03;;
5785;SDS011;2919;48.630;9.000;2024-03-25T02:34:36;4.73;;;2.27;;
5785;SDS011;2919;48.630;9.000;2024-03-25T02:37:03;3.47;;;2.13;;
5785;SDS011;2919;48.630;9.000;2024-03-25T02:39:28;5.37;;;1.70;;
5785;SDS011;2919;48.630;9.000;2024-03-25T02:41:54;4.97;;;2.60;;
5785;SDS011;2919;48.630;9.000;2024-03-25T02:44:20;10.03;;;2.57;;
5785;SDS011;2919;48.630;9.000;2024-03-25T02:46:46;3.60;;;2.37;;
5785;SDS011;2919;48.630;9.000;2024-03-25T02:49:12;3.77;;;2.47;;
5785;SDS011;2919;48.630;9.000;2024-03-25T02:51:38;2.40;;;1.70;;
5785;SDS011;2919;48.630;9.000;2024-03-25T02:54:03;5.43;;;1.73;;
5785;SDS011;2919;48.630;9.000;2024-03-25T02:56:29;5.13;;;2.20;;
5785;SDS011;2919;48.630;9.000;2024-03-25T02:58:54;4.43;;;1.90;;
5785;SDS011;2919;48.630;9.000;2024-03-25T03:01:20;2.80;;;1.90;;
5785;SDS011;2919;48.630;9.000;2024-03-25T03:03:45;2.37;;;1.80;;
5785;SDS011;2919;48.630;9.000;2024-03-25T03:06:11;7.40;;;2.23;;
5785;SDS011;2919;48.630;9.000;2024-03-25T03:08:36;4.60;;;2.90;;
5785;SDS011;2919;48.630;9.000;2024-03-25T03:11:02;5.93;;;2.53;;
5785;SDS011;2919;48.630;9.000;2024-03-25T03:13:27;4.40;;;2.30;;
5785;SDS011;2919;48.630;9.000;2024-03-25T03:15:53;4.20;;;2.20;;
5785;SDS011;2919;48.630;9.000;2024-03-25T03:18:18;4.00;;;2.13;;
5785;SDS011;2919;48.630;9.000;2024-03-25T03:20:44;5.27;;;2.10;;
5785;SDS011;2919;48.630;9.000;2024-03-25T03:23:09;3.87;;;1.60;;
5785;SDS011;2919;48.630;9.000;2024-03-25T03:25:35;2.90;;;1.30;;
5785;SDS011;2919;48.630;9.000;2024-03-25T03:28:00;4.97;;;2.30;;
5785;SDS011;2919;48.630;9.000;2024-03-25T03:30:27;5.57;;;1.90;;
5785;SDS011;2919;48.630;9.000;2024-03-25T03:32:52;2.63;;;1.50;;
5785;SDS011;2919;48.630;9.000;2024-03-25T03:35:18;13.40;;;2.17;;
5785;SDS011;2919;48.630;9.000;2024-03-25T03:37:43;2.23;;;1.20;;
5785;SDS011;2919;48.630;9.000;2024-03-25T03:40:09;2.60;;;1.70;;
5785;SDS011;2919;48.630;9.000;2024-03-25T03:42:36;2.90;;;1.50;;
5785;SDS011;2919;48.630;9.000;2024-03-25T03:45:01;3.07;;;1.97;;
5785;SDS011;2919;48.630;9.000;2024-03-25T03:47:27;8.80;;;2.03;;
5785;SDS011;2919;48.630;9.000;2024-03-25T03:49:53;3.10;;;2.37;;
5785;SDS011;2919;48.630;9.000;2024-03-25T03:52:18;4.50;;;2.30;;
5785;SDS011;2919;48.630;9.000;2024-03-25T03:54:43;2.80;;;1.47;;
5785;SDS011;2919;48.630;9.000;2024-03-25T03:57:09;2.57;;;1.53;;
5785;SDS011;2919;48.630;9.000;2024-03-25T03:59:34;1.83;;;1.47;;
5785;SDS011;2919;48.630;9.000;2024-03-25T04:02:00;5.10;;;2.73;;
5785;SDS011;2919;48.630;9.000;2024-03-25T04:04:26;8.80;;;1.70;;
5785;SDS011;2919;48.630;9.000;2024-03-25T04:06:51;4.53;;;1.90;;
5785;SDS011;2919;48.630;9.000;2024-03-25T04:09:16;2.40;;;1.63;;
5785;SDS011;2919;48.630;9.000;2024-03-25T04:11:43;2.60;;;1.83;;
5785;SDS011;2919;48.630;9.000;2024-03-25T04:14:08;4.70;;;1.70;;
5785;SDS011;2919;48.630;9.000;2024-03-25T04:16:34;2.60;;;1.70;;
5785;SDS011;2919;48.630;9.000;2024-03-25T04:18:59;3.00;;;1.83;;
5785;SDS011;2919;48.630;9.000;2024-03-25T04:21:24;13.40;;;2.00;;
5785;SDS011;2919;48.630;9.000;2024-03-25T04:23:50;7.40;;;2.70;;
5785;SDS011;2919;48.630;9.000;2024-03-25T04:26:15;9.57;;;2.90;;
5785;SDS011;2919;48.630;9.000;2024-03-25T04:28:41;4.57;;;2.17;;
5785;SDS011;2919;48.630;9.000;2024-03-25T04:31:09;7.50;;;2.70;;
5785;SDS011;2919;48.630;9.000;2024-03-25T04:33:35;5.40;;;1.93;;
5785;SDS011;2919;48.630;9.000;2024-03-25T04:36:00;6.70;;;1.97;;
5785;SDS011;2919;48.630;9.000;2024-03-25T04:38:26;3.43;;;1.63;;
5785;SDS011;2919;48.630;9.000;2024-03-25T04:40:51;9.57;;;2.60;;
5785;SDS011;2919;48.630;9.000;2024-03-25T04:43:17;6.13;;;2.70;;
5785;SDS011;2919;48.630;9.000;2024-03-25T04:45:42;4.20;;;1.93;;
5785;SDS011;2919;48.630;9.000;2024-03-25T04:48:08;2.57;;;1.63;;
5785;SDS011;2919;48.630;9.000;2024-03-25T04:50:35;10.47;;;2.63;;
5785;SDS011;2919;48.630;9.000;2024-03-25T04:53:00;6.17;;;1.83;;
5785;SDS011;2919;48.630;9.000;2024-03-25T04:55:26;6.53;;;2.43;;
5785;SDS011;2919;48.630;9.000;2024-03-25T04:57:51;15.80;;;2.20;;
5785;SDS011;2919;48.630;9.000;2024-03-25T05:00:17;3.63;;;2.13;;
5785;SDS011;2919;48.630;9.000;2024-03-25T05:02:43;2.90;;;1.97;;
5785;SDS011;2919;48.630;9.000;2024-03-25T05:05:08;4.07;;;1.73;;
5785;SDS011;2919;48.630;9.000;2024-03-25T05:07:34;6.13;;;2.20;;
5785;SDS011;2919;48.630;9.000;2024-03-25T05:10:00;3.27;;;1.90;;
5785;SDS011;2919;48.630;9.000;2024-03-25T05:12:26;3.33;;;1.80;;
5785;SDS011;2919;48.630;9.000;2024-03-25T05:14:55;3.07;;;2.00;;
5785;SDS011;2919;48.630;9.000;2024-03-25T05:17:23;5.13;;;3.10;;
5785;SDS011;2919;48.630;9.000;2024-03-25T05:19:49;2.70;;;1.50;;
5785;SDS011;2919;48.630;9.000;2024-03-25T05:22:15;9.30;;;2.30;;
5785;SDS011;2919;48.630;9.000;2024-03-25T05:24:41;2.43;;;1.40;;
5785;SDS011;2919;48.630;9.000;2024-03-25T05:27:06;8.30;;;2.77;;
5785;SDS011;2919;48.630;9.000;2024-03-25T05:29:32;4.90;;;2.30;;
5785;SDS011;2919;48.630;9.000;2024-03-25T05:31:58;7.73;;;2.27;;
5785;SDS011;2919;48.630;9.000;2024-03-25T05:34:26;3.50;;;2.27;;
5785;SDS011;2919;48.630;9.000;2024-03-25T05:36:53;4.73;;;2.10;;
5785;SDS011;2919;48.630;9.000;2024-03-25T05:39:18;5.93;;;2.30;;
5785;SDS011;2919;48.630;9.000;2024-03-25T05:41:45;3.80;;;2.00;;
5785;SDS011;2919;48.630;9.000;2024-03-25T05:44:10;3.67;;;2.37;;
5785;SDS011;2919;48.630;9.000;2024-03-25T05:46:36;4.37;;;1.77;;
5785;SDS011;2919;48.630;9.000;2024-03-25T05:49:02;9.03;;;2.60;;
5785;SDS011;2919;48.630;9.000;2024-03-25T05:51:28;5.73;;;2.70;;
5785;SDS011;2919;48.630;9.000;2024-03-25T05:53:54;3.73;;;2.17;;
5785;SDS011;2919;48.630;9.000;2024-03-25T05:56:20;5.73;;;2.60;;
5785;SDS011;2919;48.630;9.000;2024-03-25T05:58:45;4.60;;;1.87;;
5785;SDS011;2919;48.630;9.000;2024-03-25T06:01:11;4.73;;;2.40;;
5785;SDS011;2919;48.630;9.000;2024-03-25T06:03:37;6.23;;;2.30;;
5785;SDS011;2919;48.630;9.000;2024-03-25T06:06:02;6.93;;;2.30;;
5785;SDS011;2919;48.630;9.000;2024-03-25T06:08:28;7.73;;;3.10;;
5785;SDS011;2919;48.630;9.000;2024-03-25T06:10:54;3.63;;;1.80;;
5785;SDS011;2919;48.630;9.000;2024-03-25T06:13:25;3.30;;;2.17;;
5785;SDS011;2919;48.630;9.000;2024-03-25T06:15:50;2.90;;;1.90;;
5785;SDS011;2919;48.630;9.000;2024-03-25T06:18:16;4.20;;;2.17;;
5785;SDS011;2919;48.630;9.000;2024-03-25T06:20:41;3.77;;;2.40;;
5785;SDS011;2919;48.630;9.000;2024-03-25T06:23:06;3.43;;;2.40;;
5785;SDS011;2919;48.630;9.000;2024-03-25T06:25:32;5.60;;;2.60;;
5785;SDS011;2919;48.630;9.000;2024-03-25T06:27:58;3.93;;;2.00;;
5785;SDS011;2919;48.630;9.000;2024-03-25T06:30:24;4.67;;;2.03;;
5785;SDS011;2919;48.630;9.000;2024-03-25T06:33:08;5.23;;;2.57;;
5785;SDS011;2919;48.630;9.000;2024-03-25T06:35:52;5.13;;;2.30;;
5785;SDS011;2919;48.630;9.000;2024-03-25T06:38:17;8.03;;;2.20;;
5785;SDS011;2919;48.630;9.000;2024-03-25T06:40:44;5.43;;;2.77;;
5785;SDS011;2919;48.630;9.000;2024-03-25T06:43:10;16.40;;;3.17;;
5785;SDS011;2919;48.630;9.000;2024-03-25T06:45:36;5.53;;;3.10;;
5785;SDS011;2919;48.630;9.000;2024-03-25T06:48:01;16.40;;;5.30;;
5785;SDS011;2919;48.630;9.000;2024-03-25T06:50:27;17.17;;;5.63;;
5785;SDS011;2919;48.630;9.000;2024-03-25T06:52:52;18.17;;;7.30;;
5785;SDS011;2919;48.630;9.000;2024-03-25T06:55:18;13.47;;;5.70;;
5785;SDS011;2919;48.630;9.000;2024-03-25T06:57:47;4.10;;;2.40;;
5785;SDS011;2919;48.630;9.000;2024-03-25T07:00:13;6.83;;;2.67;;
5785;SDS011;2919;48.630;9.000;2024-03-25T07:02:39;7.83;;;2.67;;
5785;SDS011;2919;48.630;9.000;2024-03-25T07:05:05;6.20;;;2.30;;
5785;SDS011;2919;48.630;9.000;2024-03-25T07:07:31;3.40;;;2.27;;
5785;SDS011;2919;48.630;9.000;2024-03-25T07:09:58;17.00;;;3.00;;
5785;SDS011;2919;48.630;9.000;2024-03-25T07:12:24;12.80;;;3.07;;
5785;SDS011;2919;48.630;9.000;2024-03-25T07:14:49;7.53;;;3.20;;
5785;SDS011;2919;48.630;9.000;2024-03-25T07:17:15;5.97;;;3.00;;
5785;SDS011;2919;48.630;9.000;2024-03-25T07:19:40;4.40;;;2.60;;
5785;SDS011;2919;48.630;9.000;2024-03-25T07:22:06;4.50;;;2.27;;
5785;SDS011;2919;48.630;9.000;2024-03-25T07:24:32;6.00;;;1.47;;
5785;SDS011;2919;48.630;9.000;2024-03-25T07:26:57;10.93;;;2.03;;
5785;SDS011;2919;48.630;9.000;2024-03-25T07:29:23;6.07;;;2.03;;
5785;SDS011;2919;48.630;9.000;2024-03-25T07:31:48;9.40;;;3.10;;
5785;SDS011;2919;48.630;9.000;2024-03-25T07:34:14;3.63;;;1.43;;
5785;SDS011;2919;48.630;9.000;2024-03-25T07:36:39;3.00;;;1.43;;
5785;SDS011;2919;48.630;9.000;2024-03-25T07:39:05;3.03;;;1.90;;
5785;SDS011;2919;48.630;9.000;2024-03-25T07:41:31;8.10;;;1.57;;
5785;SDS011;2919;48.630;9.000;2024-03-25T07:43:56;3.27;;;1.90;;
5785;SDS011;2919;48.630;9.000;2024-03-25T07:46:22;5.50;;;1.93;;
5785;SDS011;2919;48.630;9.000;2024-03-25T07:48:47;4.53;;;1.30;;
5785;SDS011;2919;48.630;9.000;2024-03-25T07:51:13;4.70;;;1.73;;
5785;SDS011;2919;48.630;9.000;2024-03-25T07:53:38;3.20;;;1.70;;
5785;SDS011;2919;48.630;9.000;2024-03-25T07:56:04;6.17;;;1.60;;
5785;SDS011;2919;48.630;9.000;2024-03-25T07:58:30;3.13;;;1.40;;
5785;SDS011;2919;48.630;9.000;2024-03-25T08:00:56;1.90;;;0.90;;
5785;SDS011;2919;48.630;9.000;2024-03-25T08:03:22;19.23;;;2.60;;
5785;SDS011;2919;48.630;9.000;2024-03-25T08:05:50;1.80;;;1.10;;
5785;SDS011;2919;48.630;9.000;2024-03-25T08:08:15;9.30;;;1.63;;
5785;SDS011;2919;48.630;9.000;2024-03-25T08:10:41;2.97;;;1.50;;
5785;SDS011;2919;48.630;9.000;2024-03-25T08:13:06;11.30;;;1.73;;
5785;SDS011;2919;48.630;9.000;2024-03-25T08:15:32;2.70;;;1.17;;
5785;SDS011;2919;48.630;9.000;2024-03-25T08:17:57;4.83;;;1.50;;
5785;SDS011;2919;48.630;9.000;2024-03-25T08:20:23;5.90;;;2.20;;
5785;SDS011;2919;48.630;9.000;2024-03-25T08:22:48;3.80;;;1.60;;
5785;SDS011;2919;48.630;9.000;2024-03-25T08:25:14;3.53;;;1.27;;
5785;SDS011;2919;48.630;9.000;2024-03-25T08:27:40;1.77;;;1.00;;
5785;SDS011;2919;48.630;9.000;2024-03-25T08:30:05;4.40;;;1.40;;
5785;SDS011;2919;48.630;9.000;2024-03-25T08:32:31;7.13;;;1.83;;
5785;SDS011;2919;48.630;9.000;2024-03-25T08:34:57;5.77;;;1.70;;
5785;SDS011;2919;48.630;9.000;2024-03-25T08:37:23;2.77;;;1.50;;
5785;SDS011;2919;48.630;9.000;2024-03-25T08:39:49;4.30;;;1.40;;
5785;SDS011;2919;48.630;9.000;2024-03-25T08:42:15;5.63;;;1.57;;
5785;SDS011;2919;48.630;9.000;2024-03-25T08:44:40;3.43;;;1.73;;
5785;SDS011;2919;48.630;9.000;2024-03-25T08:47:05;5.10;;;1.53;;
5785;SDS011;2919;48.630;9.000;2024-03-25T08:49:31;4.20;;;1.20;;
5785;SDS011;2919;48.630;9.000;2024-03-25T08:51:56;2.70;;;1.30;;
5785;SDS011;2919;48.630;9.000;2024-03-25T08:54:22;3.50;;;1.10;;
5785;SDS011;2919;48.630;9.000;2024-03-25T08:56:48;4.77;;;1.80;;
5785;SDS011;2919;48.630;9.000;2024-03-25T08:59:13;10.33;;;2.23;;
5785;SDS011;2919;48.630;9.000;2024-03-25T09:01:39;5.80;;;2.07;;
5785;SDS011;2919;48.630;9.000;2024-03-25T09:04:04;2.27;;;1.27;;
5785;SDS011;2919;48.630;9.000;2024-03-25T09:06:29;4.03;;;1.60;;
5785;SDS011;2919;48.630;9.000;2024-03-25T09:08:55;3.70;;;1.30;;
5785;SDS011;2919;48.630;9.000;2024-03-25T09:11:44;6.40;;;1.17;;
5785;SDS011;2919;48.630;9.000;2024-03-25T09:14:09;5.37;;;2.00;;
5785;SDS011;2919;48.630;9.000;2024-03-25T09:16:37;2.90;;;1.30;;
5785;SDS011;2919;48.630;9.000;2024-03-25T09:19:02;3.87;;;1.43;;
5785;SDS011;2919;48.630;9.000;2024-03-25T09:21:28;3.30;;;1.07;;
5785;SDS011;2919;48.630;9.000;2024-03-25T09:23:54;7.30;;;1.90;;
5785;SDS011;2919;48.630;9.000;2024-03-25T09:26:21;3.93;;;2.03;;
5785;SDS011;2919;48.630;9.000;2024-03-25T09:28:47;5.03;;;1.13;;
5785;SDS011;2919;48.630;9.000;2024-03-25T09:31:12;10.73;;;2.40;;
5785;SDS011;2919;48.630;9.000;2024-03-25T09:33:38;10.63;;;2.10;;
5785;SDS011;2919;48.630;9.000;2024-03-25T09:36:03;6.50;;;1.63;;
5785;SDS011;2919;48.630;9.000;2024-03-25T09:38:29;3.97;;;1.90;;
5785;SDS011;2919;48.630;9.000;2024-03-25T09:40:55;5.50;;;1.00;;
5785;SDS011;2919;48.630;9.000;2024-03-25T09:44:05;4.83;;;1.50;;
5785;SDS011;2919;48.630;9.000;2024-03-25T09:46:14;5.43;;;1.50;;
5785;SDS011;2919;48.630;9.000;2024-03-25T09:48:41;3.57;;;1.17;;
5785;SDS011;2919;48.630;9.000;2024-03-25T09:51:07;1.70;;;0.90;;
5785;SDS011;2919;48.630;9.000;2024-03-25T09:53:34;2.47;;;1.40;;
5785;SDS011;2919;48.630;9.000;2024-03-25T09:56:00;3.53;;;1.10;;
5785;SDS011;2919;48.630;9.000;2024-03-25T09:58:26;3.60;;;1.50;;
5785;SDS011;2919;48.630;9.000;2024-03-25T10:00:53;5.53;;;1.03;;
5785;SDS011;2919;48.630;9.000;2024-03-25T10:03:20;2.10;;;1.00;;
5785;SDS011;2919;48.630;9.000;2024-03-25T10:05:46;8.50;;;1.87;;
5785;SDS011;2919;48.630;9.000;2024-03-25T10:08:11;2.20;;;1.30;;
5785;SDS011;2919;48.630;9.000;2024-03-25T10:10:37;2.73;;;1.47;;
5785;SDS011;2919;48.630;9.000;2024-03-25T10:13:03;7.47;;;1.17;;
5785;SDS011;2919;48.630;9.000;2024-03-25T10:15:29;1.80;;;1.10;;
5785;SDS011;2919;48.630;9.000;2024-03-25T10:17:55;2.07;;;1.10;;
5785;SDS011;2919;48.630;9.000;2024-03-25T10:20:21;3.77;;;1.13;;
5785;SDS011;2919;48.630;9.000;2024-03-25T10:22:47;12.43;;;1.70;;
5785;SDS011;2919;48.630;9.000;2024-03-25T10:27:57;4.30;;;0.93;;
5785;SDS011;2919;48.630;9.000;2024-03-25T10:30:24;4.77;;;1.07;;
5785;SDS011;2919;48.630;9.000;2024-03-25T10:33:00;5.33;;;1.47;;
5785;SDS011;2919;48.630;9.000;2024-03-25T10:35:31;2.50;;;1.20;;
5785;SDS011;2919;48.630;9.000;2024-03-25T10:38:01;6.47;;;1.40;;
5785;SDS011;2919;48.630;9.000;2024-03-25T10:40:36;2.33;;;1.10;;
5785;SDS011;2919;48.630;9.000;2024-03-25T10:43:08;3.83;;;1.50;;
5785;SDS011;2919;48.630;9.000;2024-03-25T10:46:09;2.30;;;0.93;;
5785;SDS011;2919;48.630;9.000;2024-03-25T10:48:28;4.17;;;1.80;;
5785;SDS011;2919;48.630;9.000;2024-03-25T10:50:58;2.63;;;1.13;;
5785;SDS011;2919;48.630;9.000;2024-03-25T10:53:26;1.87;;;0.73;;
5785;SDS011;2919;48.630;9.000;2024-03-25T10:55:54;1.70;;;1.07;;
5785;SDS011;2919;48.630;9.000;2024-03-25T10:58:23;1.90;;;1.10;;
5785;SDS011;2919;48.630;9.000;2024-03-25T11:00:49;1.43;;;0.90;;
5785;SDS011;2919;48.630;9.000;2024-03-25T11:03:18;4.30;;;1.77;;
5785;SDS011;2919;48.630;9.000;2024-03-25T11:05:46;3.93;;;0.70;;
5785;SDS011;2919;48.630;9.000;2024-03-25T11:08:12;5.03;;;0.90;;
5785;SDS011;2919;48.630;9.000;2024-03-25T11:10:45;1.57;;;0.93;;
5785;SDS011;2919;48.630;9.000;2024-03-25T11:13:14;4.60;;;1.00;;
5785;SDS011;2919;48.630;9.000;2024-03-25T11:15:46;3.43;;;2.13;;
5785;SDS011;2919;48.630;9.000;2024-03-25T11:18:14;2.40;;;0.93;;
5785;SDS011;2919;48.630;9.000;2024-03-25T11:20:40;3.50;;;1.53;;
5785;SDS011;2919;48.630;9.000;2024-03-25T11:23:10;4.83;;;0.90;;
5785;SDS011;2919;48.630;9.000;2024-03-25T11:25:36;1.97;;;0.70;;
5785;SDS011;2919;48.630;9.000;2024-03-25T11:28:03;2.23;;;1.13;;
5785;SDS011;2919;48.630;9.000;2024-03-25T11:30:29;6.70;;;0.90;;
5785;SDS011;2919;48.630;9.000;2024-03-25T11:32:56;2.13;;;1.00;;
5785;SDS011;2919;48.630;9.000;2024-03-25T11:35:23;2.27;;;1.03;;
5785;SDS011;2919;48.630;9.000;2024-03-25T11:37:49;2.13;;;0.90;;
5785;SDS011;2919;48.630;9.000;2024-03-25T11:40:18;2.40;;;1.23;;
5785;SDS011;2919;48.630;9.000;2024-03-25T11:42:44;1.40;;;0.67;;
5785;SDS011;2919;48.630;9.000;2024-03-25T11:45:14;1.77;;;1.10;;
5785;SDS011;2919;48.630;9.000;2024-03-25T11:47:43;2.50;;;1.10;;
5785;SDS011;2919;48.630;9.000;2024-03-25T11:50:12;2.50;;;1.30;;
5785;SDS011;2919;48.630;9.000;2024-03-25T11:52:38;3.10;;;1.40;;
5785;SDS011;2919;48.630;9.000;2024-03-25T11:55:04;2.93;;;0.83;;
5785;SDS011;2919;48.630;9.000;2024-03-25T11:57:30;3.20;;;1.13;;
5785;SDS011;2919;48.630;9.000;2024-03-25T11:59:57;5.97;;;1.50;;
5785;SDS011;2919;48.630;9.000;2024-03-25T12:02:23;1.90;;;1.10;;
5785;SDS011;2919;48.630;9.000;2024-03-25T12:04:50;2.50;;;1.30;;
5785;SDS011;2919;48.630;9.000;2024-03-25T12:07:16;2.50;;;1.30;;
5785;SDS011;2919;48.630;9.000;2024-03-25T12:09:42;2.27;;;1.30;;
5785;SDS011;2919;48.630;9.000;2024-03-25T12:12:26;9.90;;;1.30;;
5785;SDS011;2919;48.630;9.000;2024-03-25T12:14:52;2.97;;;1.00;;
5785;SDS011;2919;48.630;9.000;2024-03-25T12:17:19;2.70;;;1.33;;
5785;SDS011;2919;48.630;9.000;2024-03-25T12:19:58;2.43;;;1.13;;
5785;SDS011;2919;48.630;9.000;2024-03-25T12:22:31;2.33;;;1.03;;
5785;SDS011;2919;48.630;9.000;2024-03-25T12:24:58;3.97;;;1.00;;
5785;SDS011;2919;48.630;9.000;2024-03-25T12:27:24;2.23;;;0.70;;
5785;SDS011;2919;48.630;9.000;2024-03-25T12:29:57;1.90;;;0.90;;
5785;SDS011;2919;48.630;9.000;2024-03-25T12:32:39;2.77;;;0.63;;
5785;SDS011;2919;48.630;9.000;2024-03-25T12:35:09;3.10;;;1.13;;
5785;SDS011;2919;48.630;9.000;2024-03-25T12:37:41;3.43;;;1.60;;
5785;SDS011;2919;48.630;9.000;2024-03-25T12:40:09;1.70;;;0.87;;
5785;SDS011;2919;48.630;9.000;2024-03-25T12:42:35;5.40;;;1.37;;
5785;SDS011;2919;48.630;9.000;2024-03-25T12:45:01;3.73;;;1.40;;
5785;SDS011;2919;48.630;9.000;2024-03-25T12:47:28;12.53;;;1.60;;
5785;SDS011;2919;48.630;9.000;2024-03-25T12:49:54;1.73;;;0.60;;
5785;SDS011;2919;48.630;9.000;2024-03-25T12:52:19;4.37;;;1.27;;
5785;SDS011;2919;48.630;9.000;2024-03-25T12:54:46;4.50;;;0.87;;
5785;SDS011;2919;48.630;9.000;2024-03-25T12:57:11;3.13;;;1.33;;
5785;SDS011;2919;48.630;9.000;2024-03-25T12:59:37;3.63;;;1.00;;
5785;SDS011;2919;48.630;9.000;2024-03-25T13:02:03;1.90;;;0.90;;
5785;SDS011;2919;48.630;9.000;2024-03-25T13:04:29;4.23;;;1.57;;
5785;SDS011;2919;48.630;9.000;2024-03-25T13:06:54;2.40;;;0.80;;
5785;SDS011;2919;48.630;9.000;2024-03-25T13:09:20;1.33;;;0.70;;
5785;SDS011;2919;48.630;9.000;2024-03-25T13:11:46;1.93;;;0.77;;
5785;SDS011;2919;48.630;9.000;2024-03-25T13:14:12;5.43;;;0.97;;
5785;SDS011;2919;48.630;9.000;2024-03-25T13:16:38;2.43;;;0.70;;
5785;SDS011;2919;48.630;9.000;2024-03-25T13:19:06;1.67;;;0.90;;
5785;SDS011;2919;48.630;9.000;2024-03-25T13:21:32;8.00;;;1.17;;
5785;SDS011;2919;48.630;9.000;2024-03-25T13:23:58;1.60;;;0.80;;
5785;SDS011;2919;48.630;9.000;2024-03-25T13:26:23;1.93;;;0.80;;
5785;SDS011;2919;48.630;9.000;2024-03-25T13:28:49;2.07;;;1.07;;
5785;SDS011;2919;48.630;9.000;2024-03-25T13:31:14;1.97;;;1.23;;
5785;SDS011;2919;48.630;9.000;2024-03-25T13:33:40;3.27;;;1.10;;
5785;SDS011;2919;48.630;9.000;2024-03-25T13:36:06;1.93;;;0.97;;
5785;SDS011;2919;48.630;9.000;2024-03-25T13:38:32;8.07;;;1.30;;
5785;SDS011;2919;48.630;9.000;2024-03-25T13:41:01;1.73;;;0.70;;
5785;SDS011;2919;48.630;9.000;2024-03-25T13:43:27;3.97;;;1.20;;
5785;SDS011;2919;48.630;9.000;2024-03-25T13:45:53;1.63;;;0.87;;
5785;SDS011;2919;48.630;9.000;2024-03-25T13:48:18;2.23;;;1.00;;
5785;SDS011;2919;48.630;9.000;2024-03-25T13:50:44;2.60;;;0.90;;
5785;SDS011;2919;48.630;9.000;2024-03-25T13:53:09;4.20;;;1.10;;
5785;SDS011;2919;48.630;9.000;2024-03-25T13:55:35;4.77;;;0.97;;
5785;SDS011;2919;48.630;9.000;2024-03-25T13:58:01;3.23;;;1.00;;
5785;SDS011;2919;48.630;9.000;2024-03-25T14:00:27;1.70;;;0.73;;
5785;SDS011;2919;48.630;9.000;2024-03-25T14:02:53;7.43;;;1.37;;
5785;SDS011;2919;48.630;9.000;2024-03-25T14:05:20;1.70;;;1.00;;
5785;SDS011;2919;48.630;9.000;2024-03-25T14:07:46;2.00;;;1.20;;
5785;SDS011;2919;48.630;9.000;2024-03-25T14:10:11;6.03;;;1.20;;
5785;SDS011;2919;48.630;9.000;2024-03-25T14:12:37;2.20;;;0.80;;
5785;SDS011;2919;48.630;9.000;2024-03-25T14:15:03;2.80;;;1.10;;
5785;SDS011;2919;48.630;9.000;2024-03-25T14:17:29;3.03;;;1.10;;
5785;SDS011;2919;48.630;9.000;2024-03-25T14:19:55;2.70;;;1.10;;
5785;SDS011;2919;48.630;9.000;2024-03-25T14:22:21;3.30;;;1.00;;
5785;SDS011;2919;48.630;9.000;2024-03-25T14:24:47;2.83;;;0.87;;
5785;SDS011;2919;48.630;9.000;2024-03-25T14:27:13;1.90;;;0.97;;
5785;SDS011;2919;48.630;9.000;2024-03-25T14:29:39;8.20;;;1.80;;
5785;SDS011;2919;48.630;9.000;2024-03-25T14:32:04;3.53;;;1.23;;
5785;SDS011;2919;48.630;9.000;2024-03-25T14:34:30;4.50;;;1.57;;
5785;SDS011;2919;48.630;9.000;2024-03-25T14:36:55;3.30;;;1.00;;
5785;SDS011;2919;48.630;9.000;2024-03-25T14:39:22;2.70;;;1.10;;
5785;SDS011;2919;48.630;9.000;2024-03-25T14:41:49;1.83;;;1.10;;
5785;SDS011;2919;48.630;9.000;2024-03-25T14:44:14;3.53;;;1.13;;
5785;SDS011;2919;48.630;9.000;2024-03-25T14:46:40;3.30;;;1.10;;
5785;SDS011;2919;48.630;9.000;2024-03-25T14:49:05;2.20;;;1.27;;
5785;SDS011;2919;48.630;9.000;2024-03-25T14:51:31;4.50;;;1.47;;
5785;SDS011;2919;48.630;9.000;2024-03-25T14:53:56;2.10;;;1.17;;
5785;SDS011;2919;48.630;9.000;2024-03-25T14:56:22;3.83;;;0.93;;
5785;SDS011;2919;48.630;9.000;2024-03-25T14:58:48;1.80;;;0.83;;
5785;SDS011;2919;48.630;9.000;2024-03-25T15:01:14;2.90;;;0.97;;
5785;SDS011;2919;48.630;9.000;2024-03-25T15:03:39;3.80;;;1.60;;
5785;SDS011;2919;48.630;9.000;2024-03-25T15:06:05;9.00;;;1.20;;
5785;SDS011;2919;48.630;9.000;2024-03-25T15:08:31;3.13;;;1.23;;
5785;SDS011;2919;48.630;9.000;2024-03-25T15:10:57;3.43;;;1.30;;
5785;SDS011;2919;48.630;9.000;2024-03-25T15:13:22;3.10;;;1.37;;